sensor_id;sensor_type;location;lat;lon;timestamp;temperature;humidity
21108;DHT22;10712;52.944;9.098;2023-07-20T00:01:26;15.60;84.30
21108;DHT22;10712;52.944;9.098;2023-07-20T00:03:51;15.60;84.30
21108;DHT22;10712;52.944;9.098;2023-07-20T00:06:24;15.60;84.20
21108;DHT22;10712;52.944;9.098;2023-07-20T00:08:53;15.60;84.40
21108;DHT22;10712;52.944;9.098;2023-07-20T00:11:20;15.50;84.60
21108;DHT22;10712;52.944;9.098;2023-07-20T00:13:46;15.50;84.80
21108;DHT22;10712;52.944;9.098;2023-07-20T00:16:12;15.50;84.90
21108;DHT22;10712;52.944;9.098;2023-07-20T00:18:37;15.50;85.00
21108;DHT22;10712;52.944;9.098;2023-07-20T00:21:03;15.50;84.90
21108;DHT22;10712;52.944;9.098;2023-07-20T00:23:29;15.50;85.00
21108;DHT22;10712;52.944;9.098;2023-07-20T00:25:55;15.50;85.00
21108;DHT22;10712;52.944;9.098;2023-07-20T00:28:21;15.50;85.00
21108;DHT22;10712;52.944;9.098;2023-07-20T00:30:48;15.50;85.10
21108;DHT22;10712;52.944;9.098;2023-07-20T00:33:17;15.50;85.10
21108;DHT22;10712;52.944;9.098;2023-07-20T00:35:43;15.50;85.00
21108;DHT22;10712;52.944;9.098;2023-07-20T00:38:09;15.50;85.00
21108;DHT22;10712;52.944;9.098;2023-07-20T00:40:40;15.50;85.10
21108;DHT22;10712;52.944;9.098;2023-07-20T00:43:07;15.50;85.00
21108;DHT22;10712;52.944;9.098;2023-07-20T00:45:34;15.40;85.10
21108;DHT22;10712;52.944;9.098;2023-07-20T00:48:02;15.40;85.20
21108;DHT22;10712;52.944;9.098;2023-07-20T00:50:30;15.40;85.20
21108;DHT22;10712;52.944;9.098;2023-07-20T00:52:56;15.40;85.10
21108;DHT22;10712;52.944;9.098;2023-07-20T00:55:26;15.40;85.30
21108;DHT22;10712;52.944;9.098;2023-07-20T00:57:53;15.30;85.40
21108;DHT22;10712;52.944;9.098;2023-07-20T01:00:19;15.30;85.50
21108;DHT22;10712;52.944;9.098;2023-07-20T01:02:46;15.40;85.80
21108;DHT22;10712;52.944;9.098;2023-07-20T01:05:13;15.40;85.80
21108;DHT22;10712;52.944;9.098;2023-07-20T01:08:06;15.40;85.90
21108;DHT22;10712;52.944;9.098;2023-07-20T01:10:57;15.40;86.00
21108;DHT22;10712;52.944;9.098;2023-07-20T01:13:29;15.40;86.20
21108;DHT22;10712;52.944;9.098;2023-07-20T01:16:02;15.40;86.30
21108;DHT22;10712;52.944;9.098;2023-07-20T01:18:28;15.40;86.30
21108;DHT22;10712;52.944;9.098;2023-07-20T01:21:01;15.40;86.40
21108;DHT22;10712;52.944;9.098;2023-07-20T01:23:53;15.40;86.40
21108;DHT22;10712;52.944;9.098;2023-07-20T01:26:55;15.40;86.30
21108;DHT22;10712;52.944;9.098;2023-07-20T01:30:11;15.40;86.30
21108;DHT22;10712;52.944;9.098;2023-07-20T01:32:14;15.30;86.40
21108;DHT22;10712;52.944;9.098;2023-07-20T01:34:44;15.30;86.60
21108;DHT22;10712;52.944;9.098;2023-07-20T01:37:11;15.30;86.50
21108;DHT22;10712;52.944;9.098;2023-07-20T01:39:38;15.30;86.60
21108;DHT22;10712;52.944;9.098;2023-07-20T01:42:05;15.30;86.70
21108;DHT22;10712;52.944;9.098;2023-07-20T01:44:31;15.30;86.70
21108;DHT22;10712;52.944;9.098;2023-07-20T01:46:57;15.30;86.70
21108;DHT22;10712;52.944;9.098;2023-07-20T01:49:23;15.30;86.90
21108;DHT22;10712;52.944;9.098;2023-07-20T01:51:49;15.30;86.80
21108;DHT22;10712;52.944;9.098;2023-07-20T01:54:16;15.30;86.80
21108;DHT22;10712;52.944;9.098;2023-07-20T01:56:42;15.30;86.80
21108;DHT22;10712;52.944;9.098;2023-07-20T01:59:07;15.30;86.70
21108;DHT22;10712;52.944;9.098;2023-07-20T02:01:33;15.30;86.70
21108;DHT22;10712;52.944;9.098;2023-07-20T02:03:59;15.30;86.70
21108;DHT22;10712;52.944;9.098;2023-07-20T02:06:25;15.30;86.60
21108;DHT22;10712;52.944;9.098;2023-07-20T02:08:51;15.40;86.50
21108;DHT22;10712;52.944;9.098;2023-07-20T02:11:16;15.40;86.50
21108;DHT22;10712;52.944;9.098;2023-07-20T02:13:42;15.40;86.50
21108;DHT22;10712;52.944;9.098;2023-07-20T02:16:08;15.40;86.50
21108;DHT22;10712;52.944;9.098;2023-07-20T02:18:33;15.40;86.50
21108;DHT22;10712;52.944;9.098;2023-07-20T02:21:00;15.40;86.60
21108;DHT22;10712;52.944;9.098;2023-07-20T02:23:26;15.40;86.60
21108;DHT22;10712;52.944;9.098;2023-07-20T02:25:52;15.40;86.70
21108;DHT22;10712;52.944;9.098;2023-07-20T02:28:18;15.40;86.70
21108;DHT22;10712;52.944;9.098;2023-07-20T02:30:43;15.40;86.80
21108;DHT22;10712;52.944;9.098;2023-07-20T02:33:09;15.40;86.90
21108;DHT22;10712;52.944;9.098;2023-07-20T02:35:35;15.40;87.00
21108;DHT22;10712;52.944;9.098;2023-07-20T02:38:01;15.40;87.00
21108;DHT22;10712;52.944;9.098;2023-07-20T02:40:27;15.40;87.00
21108;DHT22;10712;52.944;9.098;2023-07-20T02:42:53;15.40;87.20
21108;DHT22;10712;52.944;9.098;2023-07-20T02:45:19;15.40;87.10
21108;DHT22;10712;52.944;9.098;2023-07-20T02:47:44;15.40;87.20
21108;DHT22;10712;52.944;9.098;2023-07-20T02:50:11;15.40;87.30
21108;DHT22;10712;52.944;9.098;2023-07-20T02:52:39;15.40;87.40
21108;DHT22;10712;52.944;9.098;2023-07-20T02:55:05;15.40;87.40
21108;DHT22;10712;52.944;9.098;2023-07-20T02:57:30;15.30;87.50
21108;DHT22;10712;52.944;9.098;2023-07-20T02:59:56;15.30;87.50
21108;DHT22;10712;52.944;9.098;2023-07-20T03:02:22;15.30;87.70
21108;DHT22;10712;52.944;9.098;2023-07-20T03:04:48;15.30;87.80
21108;DHT22;10712;52.944;9.098;2023-07-20T03:07:13;15.30;87.90
21108;DHT22;10712;52.944;9.098;2023-07-20T03:09:39;15.30;88.00
21108;DHT22;10712;52.944;9.098;2023-07-20T03:12:07;15.30;88.00
21108;DHT22;10712;52.944;9.098;2023-07-20T03:14:33;15.30;88.10
21108;DHT22;10712;52.944;9.098;2023-07-20T03:16:59;15.30;88.30
21108;DHT22;10712;52.944;9.098;2023-07-20T03:19:24;15.30;88.50
21108;DHT22;10712;52.944;9.098;2023-07-20T03:21:50;15.30;88.60
21108;DHT22;10712;52.944;9.098;2023-07-20T03:24:16;15.30;88.60
21108;DHT22;10712;52.944;9.098;2023-07-20T03:26:42;15.30;88.90
21108;DHT22;10712;52.944;9.098;2023-07-20T03:29:08;15.30;89.00
21108;DHT22;10712;52.944;9.098;2023-07-20T03:31:34;15.30;89.10
21108;DHT22;10712;52.944;9.098;2023-07-20T03:33:59;15.30;89.20
21108;DHT22;10712;52.944;9.098;2023-07-20T03:36:25;15.30;89.30
21108;DHT22;10712;52.944;9.098;2023-07-20T03:38:51;15.30;89.20
21108;DHT22;10712;52.944;9.098;2023-07-20T03:41:17;15.30;89.20
21108;DHT22;10712;52.944;9.098;2023-07-20T03:43:42;15.20;89.20
21108;DHT22;10712;52.944;9.098;2023-07-20T03:46:08;15.20;89.10
21108;DHT22;10712;52.944;9.098;2023-07-20T03:48:34;15.20;89.10
21108;DHT22;10712;52.944;9.098;2023-07-20T03:51:00;15.30;89.00
21108;DHT22;10712;52.944;9.098;2023-07-20T03:53:26;15.20;89.00
21108;DHT22;10712;52.944;9.098;2023-07-20T03:55:53;15.20;88.80
21108;DHT22;10712;52.944;9.098;2023-07-20T03:58:19;15.20;88.70
21108;DHT22;10712;52.944;9.098;2023-07-20T04:00:49;15.20;88.70
21108;DHT22;10712;52.944;9.098;2023-07-20T04:03:17;15.20;88.60
21108;DHT22;10712;52.944;9.098;2023-07-20T04:05:44;15.30;88.50
21108;DHT22;10712;52.944;9.098;2023-07-20T04:08:10;15.30;88.50
21108;DHT22;10712;52.944;9.098;2023-07-20T04:10:37;15.20;88.30
21108;DHT22;10712;52.944;9.098;2023-07-20T04:13:04;15.20;88.20
21108;DHT22;10712;52.944;9.098;2023-07-20T04:15:31;15.20;88.10
21108;DHT22;10712;52.944;9.098;2023-07-20T04:17:57;15.20;88.20
21108;DHT22;10712;52.944;9.098;2023-07-20T04:20:23;15.20;88.10
21108;DHT22;10712;52.944;9.098;2023-07-20T04:22:49;15.20;88.00
21108;DHT22;10712;52.944;9.098;2023-07-20T04:25:17;15.20;87.90
21108;DHT22;10712;52.944;9.098;2023-07-20T04:27:43;15.20;87.90
21108;DHT22;10712;52.944;9.098;2023-07-20T04:30:10;15.20;87.80
21108;DHT22;10712;52.944;9.098;2023-07-20T04:32:38;15.20;87.90
21108;DHT22;10712;52.944;9.098;2023-07-20T04:38:21;15.20;88.10
21108;DHT22;10712;52.944;9.098;2023-07-20T04:40:53;15.20;88.10
21108;DHT22;10712;52.944;9.098;2023-07-20T04:43:19;15.20;88.20
21108;DHT22;10712;52.944;9.098;2023-07-20T04:45:45;15.20;88.20
21108;DHT22;10712;52.944;9.098;2023-07-20T04:48:12;15.30;88.20
21108;DHT22;10712;52.944;9.098;2023-07-20T04:50:46;15.30;88.30
21108;DHT22;10712;52.944;9.098;2023-07-20T04:53:13;15.30;88.20
21108;DHT22;10712;52.944;9.098;2023-07-20T04:55:40;15.30;88.20
21108;DHT22;10712;52.944;9.098;2023-07-20T04:58:12;15.30;88.40
21108;DHT22;10712;52.944;9.098;2023-07-20T05:00:38;15.30;88.50
21108;DHT22;10712;52.944;9.098;2023-07-20T05:03:06;15.30;88.50
21108;DHT22;10712;52.944;9.098;2023-07-20T05:05:32;15.40;88.40
21108;DHT22;10712;52.944;9.098;2023-07-20T05:07:58;15.40;88.50
21108;DHT22;10712;52.944;9.098;2023-07-20T05:10:24;15.40;88.60
21108;DHT22;10712;52.944;9.098;2023-07-20T05:12:50;15.40;88.60
21108;DHT22;10712;52.944;9.098;2023-07-20T05:15:16;15.40;88.70
21108;DHT22;10712;52.944;9.098;2023-07-20T05:17:42;15.40;88.70
21108;DHT22;10712;52.944;9.098;2023-07-20T05:20:08;15.40;88.70
21108;DHT22;10712;52.944;9.098;2023-07-20T05:22:38;15.40;88.80
21108;DHT22;10712;52.944;9.098;2023-07-20T05:25:07;15.50;88.80
21108;DHT22;10712;52.944;9.098;2023-07-20T05:27:37;15.50;88.80
21108;DHT22;10712;52.944;9.098;2023-07-20T05:30:05;15.50;88.90
21108;DHT22;10712;52.944;9.098;2023-07-20T05:32:33;15.50;89.00
21108;DHT22;10712;52.944;9.098;2023-07-20T05:34:59;15.60;88.90
21108;DHT22;10712;52.944;9.098;2023-07-20T05:37:24;15.60;88.90
21108;DHT22;10712;52.944;9.098;2023-07-20T05:39:50;15.60;88.80
21108;DHT22;10712;52.944;9.098;2023-07-20T05:42:16;15.60;88.80
21108;DHT22;10712;52.944;9.098;2023-07-20T05:44:42;15.70;88.80
21108;DHT22;10712;52.944;9.098;2023-07-20T05:47:08;15.70;88.90
21108;DHT22;10712;52.944;9.098;2023-07-20T05:49:35;15.70;88.60
21108;DHT22;10712;52.944;9.098;2023-07-20T05:52:01;15.70;88.60
21108;DHT22;10712;52.944;9.098;2023-07-20T05:54:27;15.70;88.60
21108;DHT22;10712;52.944;9.098;2023-07-20T05:56:54;15.80;88.70
21108;DHT22;10712;52.944;9.098;2023-07-20T05:59:20;15.80;88.70
21108;DHT22;10712;52.944;9.098;2023-07-20T06:01:46;15.80;88.70
21108;DHT22;10712;52.944;9.098;2023-07-20T06:04:14;15.80;88.70
21108;DHT22;10712;52.944;9.098;2023-07-20T06:06:40;15.80;88.40
21108;DHT22;10712;52.944;9.098;2023-07-20T06:09:06;15.90;88.30
21108;DHT22;10712;52.944;9.098;2023-07-20T06:11:39;15.90;88.30
21108;DHT22;10712;52.944;9.098;2023-07-20T06:14:05;15.90;88.10
21108;DHT22;10712;52.944;9.098;2023-07-20T06:16:31;16.00;87.70
21108;DHT22;10712;52.944;9.098;2023-07-20T06:18:59;16.00;87.50
21108;DHT22;10712;52.944;9.098;2023-07-20T06:21:25;16.00;87.30
21108;DHT22;10712;52.944;9.098;2023-07-20T06:23:51;16.10;87.20
21108;DHT22;10712;52.944;9.098;2023-07-20T06:26:17;16.10;87.00
21108;DHT22;10712;52.944;9.098;2023-07-20T06:28:43;16.10;86.50
21108;DHT22;10712;52.944;9.098;2023-07-20T06:31:09;16.20;86.00
21108;DHT22;10712;52.944;9.098;2023-07-20T06:33:34;16.20;85.40
21108;DHT22;10712;52.944;9.098;2023-07-20T06:36:00;16.30;85.20
21108;DHT22;10712;52.944;9.098;2023-07-20T06:38:26;16.30;84.70
21108;DHT22;10712;52.944;9.098;2023-07-20T06:40:52;16.30;84.70
21108;DHT22;10712;52.944;9.098;2023-07-20T06:43:18;16.40;84.20
21108;DHT22;10712;52.944;9.098;2023-07-20T06:45:44;16.50;83.80
21108;DHT22;10712;52.944;9.098;2023-07-20T06:48:09;16.50;82.90
21108;DHT22;10712;52.944;9.098;2023-07-20T06:50:35;16.50;82.80
21108;DHT22;10712;52.944;9.098;2023-07-20T06:53:01;16.60;82.70
21108;DHT22;10712;52.944;9.098;2023-07-20T06:55:29;16.70;82.60
21108;DHT22;10712;52.944;9.098;2023-07-20T06:57:55;16.70;82.40
21108;DHT22;10712;52.944;9.098;2023-07-20T07:00:21;16.80;81.90
21108;DHT22;10712;52.944;9.098;2023-07-20T07:02:47;16.80;80.90
21108;DHT22;10712;52.944;9.098;2023-07-20T07:05:12;16.90;80.60
21108;DHT22;10712;52.944;9.098;2023-07-20T07:07:41;16.90;80.20
21108;DHT22;10712;52.944;9.098;2023-07-20T07:10:07;17.00;79.90
21108;DHT22;10712;52.944;9.098;2023-07-20T07:12:34;17.10;79.40
21108;DHT22;10712;52.944;9.098;2023-07-20T07:15:01;17.10;78.70
21108;DHT22;10712;52.944;9.098;2023-07-20T07:17:27;17.10;78.20
21108;DHT22;10712;52.944;9.098;2023-07-20T07:19:54;17.10;78.10
21108;DHT22;10712;52.944;9.098;2023-07-20T07:22:20;17.20;77.50
21108;DHT22;10712;52.944;9.098;2023-07-20T07:24:47;17.20;77.50
21108;DHT22;10712;52.944;9.098;2023-07-20T07:27:13;17.30;77.40
21108;DHT22;10712;52.944;9.098;2023-07-20T07:29:42;17.30;76.60
21108;DHT22;10712;52.944;9.098;2023-07-20T07:32:10;17.30;76.50
21108;DHT22;10712;52.944;9.098;2023-07-20T07:34:36;17.30;76.00
21108;DHT22;10712;52.944;9.098;2023-07-20T07:37:04;17.30;75.70
21108;DHT22;10712;52.944;9.098;2023-07-20T07:39:30;17.30;75.60
21108;DHT22;10712;52.944;9.098;2023-07-20T07:41:56;17.40;75.70
21108;DHT22;10712;52.944;9.098;2023-07-20T07:44:23;17.50;75.40
21108;DHT22;10712;52.944;9.098;2023-07-20T07:46:49;17.50;75.40
21108;DHT22;10712;52.944;9.098;2023-07-20T07:49:15;17.60;75.40
21108;DHT22;10712;52.944;9.098;2023-07-20T07:51:42;17.60;72.70
21108;DHT22;10712;52.944;9.098;2023-07-20T07:54:07;17.50;73.30
21108;DHT22;10712;52.944;9.098;2023-07-20T07:56:33;17.50;73.70
21108;DHT22;10712;52.944;9.098;2023-07-20T07:58:59;17.40;74.30
21108;DHT22;10712;52.944;9.098;2023-07-20T08:01:25;17.50;74.50
21108;DHT22;10712;52.944;9.098;2023-07-20T08:03:51;17.50;74.60
21108;DHT22;10712;52.944;9.098;2023-07-20T08:06:17;17.60;74.50
21108;DHT22;10712;52.944;9.098;2023-07-20T08:08:43;17.70;72.70
21108;DHT22;10712;52.944;9.098;2023-07-20T08:11:08;17.70;71.90
21108;DHT22;10712;52.944;9.098;2023-07-20T08:13:35;17.80;71.50
21108;DHT22;10712;52.944;9.098;2023-07-20T08:16:02;17.80;70.40
21108;DHT22;10712;52.944;9.098;2023-07-20T08:18:28;17.90;70.80
21108;DHT22;10712;52.944;9.098;2023-07-20T08:20:54;18.00;70.70
21108;DHT22;10712;52.944;9.098;2023-07-20T08:23:20;18.00;70.90
21108;DHT22;10712;52.944;9.098;2023-07-20T08:25:46;18.10;70.90
21108;DHT22;10712;52.944;9.098;2023-07-20T08:28:13;18.20;71.20
21108;DHT22;10712;52.944;9.098;2023-07-20T08:30:44;18.30;70.10
21108;DHT22;10712;52.944;9.098;2023-07-20T08:33:15;18.30;68.50
21108;DHT22;10712;52.944;9.098;2023-07-20T08:35:46;18.30;67.90
21108;DHT22;10712;52.944;9.098;2023-07-20T08:38:13;18.40;67.60
21108;DHT22;10712;52.944;9.098;2023-07-20T08:40:43;18.40;67.20
21108;DHT22;10712;52.944;9.098;2023-07-20T08:43:11;18.40;67.20
21108;DHT22;10712;52.944;9.098;2023-07-20T08:45:40;18.50;65.90
21108;DHT22;10712;52.944;9.098;2023-07-20T08:48:07;18.50;66.50
21108;DHT22;10712;52.944;9.098;2023-07-20T08:50:34;18.70;67.10
21108;DHT22;10712;52.944;9.098;2023-07-20T08:53:01;18.80;67.00
21108;DHT22;10712;52.944;9.098;2023-07-20T08:55:28;18.80;67.10
21108;DHT22;10712;52.944;9.098;2023-07-20T08:57:56;18.90;66.70
21108;DHT22;10712;52.944;9.098;2023-07-20T09:00:25;18.90;66.20
21108;DHT22;10712;52.944;9.098;2023-07-20T09:02:56;18.90;65.90
21108;DHT22;10712;52.944;9.098;2023-07-20T09:05:24;18.90;66.10
21108;DHT22;10712;52.944;9.098;2023-07-20T09:07:53;19.00;66.40
21108;DHT22;10712;52.944;9.098;2023-07-20T09:10:22;19.00;66.40
21108;DHT22;10712;52.944;9.098;2023-07-20T09:12:49;19.00;66.20
21108;DHT22;10712;52.944;9.098;2023-07-20T09:15:15;19.00;66.50
21108;DHT22;10712;52.944;9.098;2023-07-20T09:17:49;19.00;66.50
21108;DHT22;10712;52.944;9.098;2023-07-20T09:20:17;18.90;66.40
21108;DHT22;10712;52.944;9.098;2023-07-20T09:22:44;18.80;66.30
21108;DHT22;10712;52.944;9.098;2023-07-20T09:25:14;18.90;66.40
21108;DHT22;10712;52.944;9.098;2023-07-20T09:27:43;18.90;66.50
21108;DHT22;10712;52.944;9.098;2023-07-20T09:30:11;19.00;66.80
21108;DHT22;10712;52.944;9.098;2023-07-20T09:32:44;19.10;66.50
21108;DHT22;10712;52.944;9.098;2023-07-20T09:35:15;19.20;66.00
21108;DHT22;10712;52.944;9.098;2023-07-20T09:37:58;19.30;65.10
21108;DHT22;10712;52.944;9.098;2023-07-20T09:40:26;19.20;65.10
21108;DHT22;10712;52.944;9.098;2023-07-20T09:42:54;19.20;64.90
21108;DHT22;10712;52.944;9.098;2023-07-20T09:45:46;19.20;65.30
21108;DHT22;10712;52.944;9.098;2023-07-20T09:48:12;19.40;65.60
21108;DHT22;10712;52.944;9.098;2023-07-20T09:50:42;19.40;65.00
21108;DHT22;10712;52.944;9.098;2023-07-20T09:53:12;19.50;65.00
21108;DHT22;10712;52.944;9.098;2023-07-20T09:55:43;19.60;64.80
21108;DHT22;10712;52.944;9.098;2023-07-20T09:58:09;19.60;64.50
21108;DHT22;10712;52.944;9.098;2023-07-20T10:00:37;19.60;64.30
21108;DHT22;10712;52.944;9.098;2023-07-20T10:03:05;19.60;64.20
21108;DHT22;10712;52.944;9.098;2023-07-20T10:05:35;19.60;64.00
21108;DHT22;10712;52.944;9.098;2023-07-20T10:08:08;19.60;63.50
21108;DHT22;10712;52.944;9.098;2023-07-20T10:10:39;19.70;63.60
21108;DHT22;10712;52.944;9.098;2023-07-20T10:13:10;19.70;63.50
21108;DHT22;10712;52.944;9.098;2023-07-20T10:15:54;19.80;63.10
21108;DHT22;10712;52.944;9.098;2023-07-20T10:18:31;19.80;61.80
21108;DHT22;10712;52.944;9.098;2023-07-20T10:21:06;19.80;61.70
21108;DHT22;10712;52.944;9.098;2023-07-20T10:23:34;19.80;61.90
21108;DHT22;10712;52.944;9.098;2023-07-20T10:26:01;19.90;61.90
21108;DHT22;10712;52.944;9.098;2023-07-20T10:28:28;20.00;61.40
21108;DHT22;10712;52.944;9.098;2023-07-20T10:30:54;19.90;60.80
21108;DHT22;10712;52.944;9.098;2023-07-20T10:33:20;19.90;61.10
21108;DHT22;10712;52.944;9.098;2023-07-20T10:35:58;19.90;61.90
21108;DHT22;10712;52.944;9.098;2023-07-20T10:38:41;19.90;62.30
21108;DHT22;10712;52.944;9.098;2023-07-20T10:41:34;20.00;63.10
21108;DHT22;10712;52.944;9.098;2023-07-20T10:44:02;20.10;61.70
21108;DHT22;10712;52.944;9.098;2023-07-20T10:49:08;20.40;59.80
21108;DHT22;10712;52.944;9.098;2023-07-20T10:51:48;20.40;59.20
21108;DHT22;10712;52.944;9.098;2023-07-20T10:56:51;20.60;60.20
21108;DHT22;10712;52.944;9.098;2023-07-20T10:59:36;20.50;61.80
21108;DHT22;10712;52.944;9.098;2023-07-20T11:02:09;20.20;62.50
21108;DHT22;10712;52.944;9.098;2023-07-20T11:04:41;19.90;64.20
21108;DHT22;10712;52.944;9.098;2023-07-20T11:07:09;19.60;66.30
21108;DHT22;10712;52.944;9.098;2023-07-20T11:09:35;19.30;67.80
21108;DHT22;10712;52.944;9.098;2023-07-20T11:12:11;19.00;69.10
21108;DHT22;10712;52.944;9.098;2023-07-20T11:14:53;18.80;70.30
21108;DHT22;10712;52.944;9.098;2023-07-20T11:17:31;18.60;71.30
21108;DHT22;10712;52.944;9.098;2023-07-20T11:19:58;18.50;72.50
21108;DHT22;10712;52.944;9.098;2023-07-20T11:22:30;18.50;73.30
21108;DHT22;10712;52.944;9.098;2023-07-20T11:24:57;18.50;73.70
21108;DHT22;10712;52.944;9.098;2023-07-20T11:27:24;18.50;74.10
21108;DHT22;10712;52.944;9.098;2023-07-20T11:29:50;18.50;74.70
21108;DHT22;10712;52.944;9.098;2023-07-20T11:32:22;18.60;75.00
21108;DHT22;10712;52.944;9.098;2023-07-20T11:34:49;18.60;75.10
21108;DHT22;10712;52.944;9.098;2023-07-20T11:37:16;18.70;74.60
21108;DHT22;10712;52.944;9.098;2023-07-20T11:39:42;18.70;74.30
21108;DHT22;10712;52.944;9.098;2023-07-20T11:42:08;18.80;73.90
21108;DHT22;10712;52.944;9.098;2023-07-20T11:44:34;18.80;71.80
21108;DHT22;10712;52.944;9.098;2023-07-20T11:47:10;18.90;70.30
21108;DHT22;10712;52.944;9.098;2023-07-20T11:49:42;18.90;69.00
21108;DHT22;10712;52.944;9.098;2023-07-20T11:52:11;19.00;68.70
21108;DHT22;10712;52.944;9.098;2023-07-20T11:54:40;19.00;67.50
21108;DHT22;10712;52.944;9.098;2023-07-20T11:57:07;19.00;66.20
21108;DHT22;10712;52.944;9.098;2023-07-20T11:59:53;19.10;66.20
21108;DHT22;10712;52.944;9.098;2023-07-20T12:02:23;19.00;66.40
21108;DHT22;10712;52.944;9.098;2023-07-20T12:04:52;19.00;66.50
21108;DHT22;10712;52.944;9.098;2023-07-20T12:07:22;19.10;67.10
21108;DHT22;10712;52.944;9.098;2023-07-20T12:10:08;19.20;67.30
21108;DHT22;10712;52.944;9.098;2023-07-20T12:12:38;19.40;67.50
21108;DHT22;10712;52.944;9.098;2023-07-20T12:15:21;19.50;67.30
21108;DHT22;10712;52.944;9.098;2023-07-20T12:17:55;19.60;66.70
21108;DHT22;10712;52.944;9.098;2023-07-20T12:20:35;19.60;66.10
21108;DHT22;10712;52.944;9.098;2023-07-20T12:23:12;19.70;65.20
21108;DHT22;10712;52.944;9.098;2023-07-20T12:25:45;19.80;65.30
21108;DHT22;10712;52.944;9.098;2023-07-20T12:28:16;19.90;65.10
21108;DHT22;10712;52.944;9.098;2023-07-20T12:30:45;19.90;64.40
21108;DHT22;10712;52.944;9.098;2023-07-20T12:33:12;20.00;64.30
21108;DHT22;10712;52.944;9.098;2023-07-20T12:35:41;20.10;63.60
21108;DHT22;10712;52.944;9.098;2023-07-20T12:38:08;20.20;63.40
21108;DHT22;10712;52.944;9.098;2023-07-20T12:40:34;20.20;63.10
21108;DHT22;10712;52.944;9.098;2023-07-20T12:43:01;20.30;63.50
21108;DHT22;10712;52.944;9.098;2023-07-20T12:45:27;20.40;64.10
21108;DHT22;10712;52.944;9.098;2023-07-20T12:47:53;20.50;63.80
21108;DHT22;10712;52.944;9.098;2023-07-20T12:50:19;20.60;62.90
21108;DHT22;10712;52.944;9.098;2023-07-20T12:52:45;20.60;62.40
21108;DHT22;10712;52.944;9.098;2023-07-20T12:55:10;20.60;62.70
21108;DHT22;10712;52.944;9.098;2023-07-20T12:57:37;20.60;62.40
21108;DHT22;10712;52.944;9.098;2023-07-20T13:00:04;20.50;62.90
21108;DHT22;10712;52.944;9.098;2023-07-20T13:02:33;20.20;62.70
21108;DHT22;10712;52.944;9.098;2023-07-20T13:04:59;19.90;64.00
21108;DHT22;10712;52.944;9.098;2023-07-20T13:07:32;19.60;64.80
21108;DHT22;10712;52.944;9.098;2023-07-20T13:09:59;19.30;66.80
21108;DHT22;10712;52.944;9.098;2023-07-20T13:12:31;19.00;69.20
21108;DHT22;10712;52.944;9.098;2023-07-20T13:14:58;18.70;71.40
21108;DHT22;10712;52.944;9.098;2023-07-20T13:17:29;18.40;73.50
21108;DHT22;10712;52.944;9.098;2023-07-20T13:19:55;18.10;75.10
21108;DHT22;10712;52.944;9.098;2023-07-20T13:22:21;17.90;76.40
21108;DHT22;10712;52.944;9.098;2023-07-20T13:24:47;17.80;77.40
21108;DHT22;10712;52.944;9.098;2023-07-20T13:27:17;17.70;78.80
21108;DHT22;10712;52.944;9.098;2023-07-20T13:29:43;17.70;79.60
21108;DHT22;10712;52.944;9.098;2023-07-20T13:32:10;17.60;79.90
21108;DHT22;10712;52.944;9.098;2023-07-20T13:34:37;17.70;80.70
21108;DHT22;10712;52.944;9.098;2023-07-20T13:37:03;17.70;81.70
21108;DHT22;10712;52.944;9.098;2023-07-20T13:39:28;17.80;82.30
21108;DHT22;10712;52.944;9.098;2023-07-20T13:41:54;17.80;82.50
21108;DHT22;10712;52.944;9.098;2023-07-20T13:44:21;17.80;82.80
21108;DHT22;10712;52.944;9.098;2023-07-20T13:46:50;17.80;83.30
21108;DHT22;10712;52.944;9.098;2023-07-20T13:49:16;17.80;83.60
21108;DHT22;10712;52.944;9.098;2023-07-20T13:51:42;17.80;83.80
21108;DHT22;10712;52.944;9.098;2023-07-20T13:54:08;17.80;83.70
21108;DHT22;10712;52.944;9.098;2023-07-20T13:56:34;17.80;83.60
21108;DHT22;10712;52.944;9.098;2023-07-20T13:59:01;17.80;83.40
21108;DHT22;10712;52.944;9.098;2023-07-20T14:01:27;17.70;83.60
21108;DHT22;10712;52.944;9.098;2023-07-20T14:03:55;17.70;83.70
21108;DHT22;10712;52.944;9.098;2023-07-20T14:06:21;17.70;84.20
21108;DHT22;10712;52.944;9.098;2023-07-20T14:08:47;17.70;84.80
21108;DHT22;10712;52.944;9.098;2023-07-20T14:11:14;17.80;85.20
21108;DHT22;10712;52.944;9.098;2023-07-20T14:13:41;17.80;85.30
21108;DHT22;10712;52.944;9.098;2023-07-20T14:16:07;17.90;85.50
21108;DHT22;10712;52.944;9.098;2023-07-20T14:18:33;17.90;85.50
21108;DHT22;10712;52.944;9.098;2023-07-20T14:20:59;18.00;85.00
21108;DHT22;10712;52.944;9.098;2023-07-20T14:23:25;18.00;84.90
21108;DHT22;10712;52.944;9.098;2023-07-20T14:25:51;18.10;85.00
21108;DHT22;10712;52.944;9.098;2023-07-20T14:28:16;18.20;84.90
21108;DHT22;10712;52.944;9.098;2023-07-20T14:30:42;18.30;85.10
21108;DHT22;10712;52.944;9.098;2023-07-20T14:33:08;18.40;85.10
21108;DHT22;10712;52.944;9.098;2023-07-20T14:35:34;18.40;85.30
21108;DHT22;10712;52.944;9.098;2023-07-20T14:38:00;18.40;84.90
21108;DHT22;10712;52.944;9.098;2023-07-20T14:40:27;18.50;84.30
21108;DHT22;10712;52.944;9.098;2023-07-20T14:42:52;18.50;84.30
21108;DHT22;10712;52.944;9.098;2023-07-20T14:45:18;18.50;84.10
21108;DHT22;10712;52.944;9.098;2023-07-20T14:47:44;18.50;82.80
21108;DHT22;10712;52.944;9.098;2023-07-20T14:50:10;18.40;82.40
21108;DHT22;10712;52.944;9.098;2023-07-20T14:52:37;18.40;82.00
21108;DHT22;10712;52.944;9.098;2023-07-20T14:55:03;18.30;81.70
21108;DHT22;10712;52.944;9.098;2023-07-20T14:57:30;18.20;81.20
21108;DHT22;10712;52.944;9.098;2023-07-20T14:59:55;18.20;81.40
21108;DHT22;10712;52.944;9.098;2023-07-20T15:02:21;18.10;81.70
21108;DHT22;10712;52.944;9.098;2023-07-20T15:04:50;18.10;82.50
21108;DHT22;10712;52.944;9.098;2023-07-20T15:07:19;18.10;83.00
21108;DHT22;10712;52.944;9.098;2023-07-20T15:09:47;18.10;83.10
21108;DHT22;10712;52.944;9.098;2023-07-20T15:12:13;18.10;83.30
21108;DHT22;10712;52.944;9.098;2023-07-20T15:14:41;18.00;83.50
21108;DHT22;10712;52.944;9.098;2023-07-20T15:17:11;18.00;84.30
21108;DHT22;10712;52.944;9.098;2023-07-20T15:19:37;18.00;84.50
21108;DHT22;10712;52.944;9.098;2023-07-20T15:22:04;18.00;84.80
21108;DHT22;10712;52.944;9.098;2023-07-20T15:24:32;18.00;84.80
21108;DHT22;10712;52.944;9.098;2023-07-20T15:26:58;18.00;85.00
21108;DHT22;10712;52.944;9.098;2023-07-20T15:29:24;18.00;84.30
21108;DHT22;10712;52.944;9.098;2023-07-20T15:31:50;17.90;84.40
21108;DHT22;10712;52.944;9.098;2023-07-20T15:34:16;17.90;84.30
21108;DHT22;10712;52.944;9.098;2023-07-20T15:36:41;17.90;83.80
21108;DHT22;10712;52.944;9.098;2023-07-20T15:39:08;17.80;83.30
21108;DHT22;10712;52.944;9.098;2023-07-20T15:41:33;17.80;83.50
21108;DHT22;10712;52.944;9.098;2023-07-20T15:44:00;17.80;83.40